Captain Diamantis — SYJT — position and weather

sailwx.info

Track history (hours):
 
Tides and Currents Weather Stations Pressure Air Temp Water Temp Dewpoint Dewpoint Depression Visibility Wind Speed Wind Dir Waves Ship Positions

Captain Diamantis

Last reported at 2018-Jan-18 17:28 UTC. Time now 2018-Jan-18 17:37 UTC.
Position N 59°56' E 028°38'.

Length 225 m; draft 7.1 m.

Type: Cargo ship. MMSI: 239746000.

Date/timePositionNaut miles runAvg speedWind from/ knotsBaromVisibWave heightAir tempDewpointWater temp
2018-Jan-18 17:28N 59°56' E 028°38'0 0.0
2018-Jan-18 16:58N 59°56' E 028°38'0 0.0
2018-Jan-18 16:28N 59°56' E 028°38'0 0.0
2018-Jan-18 15:58N 59°56' E 028°38'0 0.0
2018-Jan-18 15:28N 59°56' E 028°38'0 0.0
2018-Jan-18 14:58N 59°56' E 028°38'0 0.0
2018-Jan-18 14:28N 59°56' E 028°38'0 0.0
2018-Jan-18 13:55N 59°56' E 028°38'0 0.0
2018-Jan-18 13:28N 59°56' E 028°38'0 0.0
2018-Jan-18 12:58N 59°56' E 028°38'0 0.1
2018-Jan-18 12:28N 59°56' E 028°38'0 0.1
2018-Jan-18 11:58N 59°56' E 028°38'0 0.0
2018-Jan-18 11:28N 59°56' E 028°38'0 0.0
2018-Jan-18 10:58N 59°56' E 028°38'0 0.1
2018-Jan-18 10:28N 59°56' E 028°38'0 0.1
2018-Jan-18 09:58N 59°56' E 028°38'0 0.1
2018-Jan-18 09:28N 59°56' E 028°38'0 0.0
2018-Jan-18 08:58N 59°56' E 028°38'0 0.1
2018-Jan-18 08:28N 59°56' E 028°38'0 0.1
2018-Jan-18 07:58N 59°56' E 028°38'0 0.1
2018-Jan-18 07:28N 59°56' E 028°38'0 0.1
2018-Jan-18 06:58N 59°56' E 028°38'0 0.1
2018-Jan-18 06:28N 59°56' E 028°38'0 0.0
2018-Jan-18 05:58N 59°56' E 028°38'0 0.1
2018-Jan-18 05:28N 59°56' E 028°38'0 0.2
2018-Jan-18 04:58N 59°56' E 028°38'0 0.2
2018-Jan-18 04:28N 59°56' E 028°38'0 0.1
2018-Jan-18 03:58N 59°56' E 028°38'0 0.1
2018-Jan-18 03:28N 59°56' E 028°38'0 0.1
2018-Jan-18 02:58N 59°56' E 028°38'0 0.0
2018-Jan-18 02:28N 59°56' E 028°38'0 0.1
2018-Jan-18 01:58N 59°56' E 028°38'0 0.1
2018-Jan-18 01:28N 59°56' E 028°38'0 0.2
2018-Jan-18 00:58N 59°56' E 028°38'0 0.0
2018-Jan-17 23:58N 59°56' E 028°38'0 0.6
2018-Jan-17 23:55N 59°56' E 028°38'  
2018-Jan-12 14:12N 53°41' E 004°53'313.4
2018-Jan-12 14:00N 53°39' E 004°51'713.5
2018-Jan-12 13:30N 53°32' E 004°47'714.0
2018-Jan-12 13:00N 53°26' E 004°42'714.4
2018-Jan-12 12:30N 53°19' E 004°38'714.4
2018-Jan-12 12:00N 53°13' E 004°33'714.1
2018-Jan-12 11:31N 53°06' E 004°28'713.4
2018-Jan-12 11:01N 53°01' E 004°22'713.0
2018-Jan-12 10:31N 52°55' E 004°17'612.5
2018-Jan-12 10:01N 52°50' E 004°12'612.5
2018-Jan-12 09:30N 52°45' E 004°04'612.4
2018-Jan-12 09:00N 52°40' E 003°57'612.3
2018-Jan-12 08:29N 52°36' E 003°50'612.2
2018-Jan-12 08:01N 52°32' E 003°44'612.0
2018-Jan-12 07:30N 52°27' E 003°36'611.9
2018-Jan-12 07:00N 52°23' E 003°30'611.7
2018-Jan-12 06:31N 52°19' E 003°23'611.5
2018-Jan-12 05:58N 52°14' E 003°16'22 8.8
2018-Jan-12 03:27N 51°53' E 003°05'512.1
2018-Jan-12 03:00N 51°49' E 003°10'810.5
2018-Jan-12 02:16N 51°42' E 003°17'413.5
2018-Jan-12 01:59N 51°39' E 003°20'714.4
2018-Jan-12 01:30N 51°33' E 003°25'714.3
2018-Jan-12 01:00N 51°27' E 003°32'5 9.3
2018-Jan-12 00:30N 51°27' E 003°39'612.7
2018-Jan-12 00:01N 51°22' E 003°46'3 5.8
2018-Jan-11 23:30N 51°20' E 003°49'0 0.0
2018-Jan-11 23:00N 51°20' E 003°49'1 1.6
2018-Jan-11 22:31N 51°19' E 003°50'3 5.1
2018-Jan-11 22:01N 51°16' E 003°50'3 6.2
2018-Jan-11 21:30N 51°14' E 003°48'3 6.6
2018-Jan-11 21:00N 51°10' E 003°48'0 0.1
2018-Jan-11 20:30N 51°10' E 003°48'0 0.1
2018-Jan-11 19:59N 51°10' E 003°48'0 0.0
2018-Jan-11 19:29N 51°10' E 003°48'0 0.0
2018-Jan-11 18:59N 51°10' E 003°48'0 0.0
2018-Jan-11 18:29N 51°10' E 003°48'0 0.0
2018-Jan-11 17:59N 51°10' E 003°48'0 0.0
2018-Jan-11 17:29N 51°10' E 003°48'0 0.0
2018-Jan-11 16:59N 51°10' E 003°48'0 0.0
2018-Jan-11 16:29N 51°10' E 003°48'0 0.0
2018-Jan-11 15:59N 51°10' E 003°48'0 0.0
2018-Jan-11 15:29N 51°10' E 003°48'0 0.0
2018-Jan-11 14:59N 51°10' E 003°48'0 0.0
2018-Jan-11 14:29N 51°10' E 003°48'0 0.0
2018-Jan-11 13:56N 51°10' E 003°48'0 0.0
2018-Jan-11 13:29N 51°10' E 003°48'0 0.0
2018-Jan-11 12:59N 51°10' E 003°48'0 0.0
2018-Jan-11 12:29N 51°10' E 003°48'0 0.0
2018-Jan-11 11:59N 51°10' E 003°48'0 0.0
2018-Jan-11 11:29N 51°10' E 003°48'0 0.0
2018-Jan-11 10:59N 51°10' E 003°48'0 0.0
2018-Jan-11 10:29N 51°10' E 003°48'0 0.0
2018-Jan-11 09:59N 51°10' E 003°48'0 0.0
2018-Jan-11 09:26N 51°10' E 003°48'0 0.0
2018-Jan-11 08:59N 51°10' E 003°48'0 0.0
2018-Jan-11 08:29N 51°10' E 003°48'0 0.0
2018-Jan-11 07:59N 51°10' E 003°48'0 0.0
2018-Jan-11 07:23N 51°10' E 003°48'0 0.0
2018-Jan-11 06:59N 51°10' E 003°48'0 0.0
2018-Jan-11 06:29N 51°10' E 003°48'0 0.0
2018-Jan-11 05:59N 51°10' E 003°48'0 0.0
2018-Jan-11 05:29N 51°10' E 003°48'0 0.0
2018-Jan-11 04:59N 51°10' E 003°48'0 0.0
2018-Jan-11 04:29N 51°10' E 003°48'0 0.0
2018-Jan-11 04:00N 51°10' E 003°48'0 0.0
2018-Jan-11 03:29N 51°10' E 003°48'0 0.0
2018-Jan-11 02:59N 51°10' E 003°48'0 0.0
2018-Jan-11 02:29N 51°10' E 003°48'0 0.0
2018-Jan-11 01:59N 51°10' E 003°48'0 0.0
2018-Jan-11 01:29N 51°10' E 003°48'0 0.0
2018-Jan-11 00:59N 51°10' E 003°48'0 0.0
2018-Jan-11 00:29N 51°10' E 003°48'0 0.0
2018-Jan-10 23:59N 51°10' E 003°48'0 0.0
2018-Jan-10 23:29N 51°10' E 003°48'0 0.0
2018-Jan-10 22:59N 51°10' E 003°48'0 0.0
2018-Jan-10 22:29N 51°10' E 003°48'0 0.0
2018-Jan-10 22:00N 51°10' E 003°48'0 0.0
2018-Jan-10 21:29N 51°10' E 003°48'0 0.0
2018-Jan-10 20:59N 51°10' E 003°48'0 0.0
2018-Jan-10 20:29N 51°10' E 003°48'0 0.0
2018-Jan-10 19:59N 51°10' E 003°48'0 0.0
2018-Jan-10 19:23N 51°10' E 003°48'0 0.0
2018-Jan-10 18:59N 51°10' E 003°48'0 0.0
2018-Jan-10 18:29N 51°10' E 003°48'0 0.0
2018-Jan-10 17:59N 51°10' E 003°48'0 0.0
2018-Jan-10 17:29N 51°10' E 003°48'0 0.0
2018-Jan-10 16:59N 51°10' E 003°48'0 0.0
2018-Jan-10 16:29N 51°10' E 003°48'0 0.0
2018-Jan-10 15:59N 51°10' E 003°48'0 0.0
2018-Jan-10 15:29N 51°10' E 003°48'0 0.0
2018-Jan-10 14:58N 51°10' E 003°48'0 0.0
2018-Jan-10 14:29N 51°10' E 003°48'0 0.0
2018-Jan-10 13:59N 51°10' E 003°48'0 0.0
2018-Jan-10 13:29N 51°10' E 003°48'0 0.0
2018-Jan-10 12:59N 51°10' E 003°48'0 0.0
2018-Jan-10 12:29N 51°10' E 003°48'0 0.0
2018-Jan-10 11:59N 51°10' E 003°48'0 0.0
2018-Jan-10 11:29N 51°10' E 003°48'0 0.0
2018-Jan-10 10:59N 51°10' E 003°48'0 0.0
2018-Jan-10 10:29N 51°10' E 003°48'0 0.0
2018-Jan-10 09:59N 51°10' E 003°48'0 0.0
2018-Jan-10 09:29N 51°10' E 003°48'0 0.0
2018-Jan-10 08:59N 51°10' E 003°48'0 0.0
2018-Jan-10 08:29N 51°10' E 003°48'0 0.0
2018-Jan-10 07:59N 51°10' E 003°48'0 0.0
2018-Jan-10 07:29N 51°10' E 003°48'0 0.0
2018-Jan-10 06:59N 51°10' E 003°48'0 0.0
2018-Jan-10 06:29N 51°10' E 003°48'0 0.0
2018-Jan-10 05:56N 51°10' E 003°48'0 0.0
2018-Jan-10 05:29N 51°10' E 003°48'0 0.0
2018-Jan-10 04:59N 51°10' E 003°48'0 0.0
2018-Jan-10 04:29N 51°10' E 003°48'0 0.0
2018-Jan-10 03:59N 51°10' E 003°48'0 0.0
2018-Jan-10 03:29N 51°10' E 003°48'0 0.0
2018-Jan-10 02:59N 51°10' E 003°48'0 0.0
2018-Jan-10 02:29N 51°10' E 003°48'0 0.0
2018-Jan-10 01:59N 51°10' E 003°48'0 0.0
2018-Jan-10 01:29N 51°10' E 003°48'0 0.0
2018-Jan-10 00:59N 51°10' E 003°48'0 0.0
2018-Jan-10 00:29N 51°10' E 003°48'0 0.0
2018-Jan-09 23:59N 51°10' E 003°48'0 0.0
2018-Jan-09 23:29N 51°10' E 003°48'0 0.0
2018-Jan-09 22:59N 51°10' E 003°48'0 0.0
2018-Jan-09 22:29N 51°10' E 003°48'0 0.0
2018-Jan-09 21:59N 51°10' E 003°48'0 0.0
2018-Jan-09 21:29N 51°10' E 003°48'0 0.0
2018-Jan-09 20:56N 51°10' E 003°48'0 0.0
2018-Jan-09 20:29N 51°10' E 003°48'0 0.0
2018-Jan-09 19:53N 51°10' E 003°48'0 0.0
2018-Jan-09 19:29N 51°10' E 003°48'0 0.0
2018-Jan-09 18:59N 51°10' E 003°48'0 0.0
2018-Jan-09 18:29N 51°10' E 003°48'0 0.0
2018-Jan-09 17:59N 51°10' E 003°48'0 0.0
2018-Jan-09 17:29N 51°10' E 003°48'0 0.0
2018-Jan-09 16:59N 51°10' E 003°48'0 0.0
2018-Jan-09 16:29N 51°10' E 003°48'0 0.0
2018-Jan-09 15:59N 51°10' E 003°48'0 0.0
2018-Jan-09 15:29N 51°10' E 003°48'0 0.0
2018-Jan-09 14:59N 51°10' E 003°48'0 0.0
2018-Jan-09 14:29N 51°10' E 003°48'0 0.0
2018-Jan-09 13:59N 51°10' E 003°48'0 0.0
2018-Jan-09 13:29N 51°10' E 003°48'0 0.0
2018-Jan-09 12:59N 51°10' E 003°48'0 0.0
2018-Jan-09 12:29N 51°10' E 003°48'0 0.0
2018-Jan-09 11:56N 51°10' E 003°48'0 0.0
2018-Jan-09 11:29N 51°10' E 003°48'0 0.0
2018-Jan-09 10:59N 51°10' E 003°48'0 0.0
2018-Jan-09 10:29N 51°10' E 003°48'0 0.0
2018-Jan-09 09:59N 51°10' E 003°48'0 0.0
2018-Jan-09 09:29N 51°10' E 003°48'0 0.0
2018-Jan-09 08:59N 51°10' E 003°48'0 0.0
2018-Jan-09 08:29N 51°10' E 003°48'0 0.0
2018-Jan-09 07:59N 51°10' E 003°48'0 0.0
2018-Jan-09 07:29N 51°10' E 003°48'0 0.0
2018-Jan-09 06:56N 51°10' E 003°48'0 0.0
2018-Jan-09 06:29N 51°10' E 003°48'0 0.0
2018-Jan-09 05:59N 51°10' E 003°48'0 0.0
2018-Jan-09 05:29N 51°10' E 003°48'0 0.0
2018-Jan-09 04:59N 51°10' E 003°48'0 0.0
2018-Jan-09 04:29N 51°10' E 003°48'0 0.0
2018-Jan-09 03:59N 51°10' E 003°48'0 0.0
2018-Jan-09 03:29N 51°10' E 003°48'0 0.0
2018-Jan-09 02:59N 51°10' E 003°48'0 0.0
2018-Jan-09 02:29N 51°10' E 003°48'0 0.0
2018-Jan-09 01:59N 51°10' E 003°48'0 0.0
2018-Jan-09 01:26N 51°10' E 003°48'0 0.0
2018-Jan-09 00:59N 51°10' E 003°48'0 0.0
2018-Jan-09 00:29N 51°10' E 003°48'0 0.0
2018-Jan-08 23:59N 51°10' E 003°48'0 0.0
2018-Jan-08 23:29N 51°10' E 003°48'0 0.0
2018-Jan-08 22:59N 51°10' E 003°48'0 0.0
2018-Jan-08 22:29N 51°10' E 003°48'0 0.0
2018-Jan-08 21:59N 51°10' E 003°48'0 0.0
2018-Jan-08 21:29N 51°10' E 003°48'0 0.0
2018-Jan-08 20:59N 51°10' E 003°48'0 0.0
2018-Jan-08 20:29N 51°10' E 003°48'0 0.0
2018-Jan-08 19:59N 51°10' E 003°48'0 0.0
2018-Jan-08 19:29N 51°10' E 003°48'0 0.0
2018-Jan-08 18:59N 51°10' E 003°48'0 0.0
2018-Jan-08 18:30N 51°10' E 003°48'0 0.0
2018-Jan-08 17:59N 51°10' E 003°48'0 0.0
2018-Jan-08 17:29N 51°10' E 003°48'  
Track history (hours):
 
Tides and Currents Weather Stations Pressure Air Temp Water Temp Dewpoint Dewpoint Depression Visibility Wind Speed Wind Dir Waves Ship Positions

Captain Diamantis

Last reported at 2018-Jan-18 17:28 UTC. Time now 2018-Jan-18 17:37 UTC.
Position N 59°56' E 028°38'.

Length 225 m; draft 7.1 m.

Type: Cargo ship. MMSI: 239746000.

Date/timePositionNaut miles runAvg speedWind from/ knotsBaromVisibWave heightAir tempDewpointWater temp
2018-Jan-18 17:28N 59°56' E 028°38'0 0.0
2018-Jan-18 16:58N 59°56' E 028°38'0 0.0
2018-Jan-18 16:28N 59°56' E 028°38'0 0.0
2018-Jan-18 15:58N 59°56' E 028°38'0 0.0
2018-Jan-18 15:28N 59°56' E 028°38'0 0.0
2018-Jan-18 14:58N 59°56' E 028°38'0 0.0
2018-Jan-18 14:28N 59°56' E 028°38'0 0.0
2018-Jan-18 13:55N 59°56' E 028°38'0 0.0
2018-Jan-18 13:28N 59°56' E 028°38'0 0.0
2018-Jan-18 12:58N 59°56' E 028°38'0 0.1
2018-Jan-18 12:28N 59°56' E 028°38'0 0.1
2018-Jan-18 11:58N 59°56' E 028°38'0 0.0
2018-Jan-18 11:28N 59°56' E 028°38'0 0.0
2018-Jan-18 10:58N 59°56' E 028°38'0 0.1
2018-Jan-18 10:28N 59°56' E 028°38'0 0.1
2018-Jan-18 09:58N 59°56' E 028°38'0 0.1
2018-Jan-18 09:28N 59°56' E 028°38'0 0.0
2018-Jan-18 08:58N 59°56' E 028°38'0 0.1
2018-Jan-18 08:28N 59°56' E 028°38'0 0.1
2018-Jan-18 07:58N 59°56' E 028°38'0 0.1
2018-Jan-18 07:28N 59°56' E 028°38'0 0.1
2018-Jan-18 06:58N 59°56' E 028°38'0 0.1
2018-Jan-18 06:28N 59°56' E 028°38'0 0.0
2018-Jan-18 05:58N 59°56' E 028°38'0 0.1
2018-Jan-18 05:28N 59°56' E 028°38'0 0.2
2018-Jan-18 04:58N 59°56' E 028°38'0 0.2
2018-Jan-18 04:28N 59°56' E 028°38'0 0.1
2018-Jan-18 03:58N 59°56' E 028°38'0 0.1
2018-Jan-18 03:28N 59°56' E 028°38'0 0.1
2018-Jan-18 02:58N 59°56' E 028°38'0 0.0
2018-Jan-18 02:28N 59°56' E 028°38'0 0.1
2018-Jan-18 01:58N 59°56' E 028°38'0 0.1
2018-Jan-18 01:28N 59°56' E 028°38'0 0.2
2018-Jan-18 00:58N 59°56' E 028°38'0 0.0
2018-Jan-17 23:58N 59°56' E 028°38'0 0.6
2018-Jan-17 23:55N 59°56' E 028°38'  
2018-Jan-12 14:12N 53°41' E 004°53'313.4
2018-Jan-12 14:00N 53°39' E 004°51'713.5
2018-Jan-12 13:30N 53°32' E 004°47'714.0
2018-Jan-12 13:00N 53°26' E 004°42'714.4
2018-Jan-12 12:30N 53°19' E 004°38'714.4
2018-Jan-12 12:00N 53°13' E 004°33'714.1
2018-Jan-12 11:31N 53°06' E 004°28'713.4
2018-Jan-12 11:01N 53°01' E 004°22'713.0
2018-Jan-12 10:31N 52°55' E 004°17'612.5
2018-Jan-12 10:01N 52°50' E 004°12'612.5
2018-Jan-12 09:30N 52°45' E 004°04'612.4
2018-Jan-12 09:00N 52°40' E 003°57'612.3
2018-Jan-12 08:29N 52°36' E 003°50'612.2
2018-Jan-12 08:01N 52°32' E 003°44'612.0
2018-Jan-12 07:30N 52°27' E 003°36'611.9
2018-Jan-12 07:00N 52°23' E 003°30'611.7
2018-Jan-12 06:31N 52°19' E 003°23'611.5
2018-Jan-12 05:58N 52°14' E 003°16'22 8.8
2018-Jan-12 03:27N 51°53' E 003°05'512.1
2018-Jan-12 03:00N 51°49' E 003°10'810.5
2018-Jan-12 02:16N 51°42' E 003°17'413.5
2018-Jan-12 01:59N 51°39' E 003°20'714.4
2018-Jan-12 01:30N 51°33' E 003°25'714.3
2018-Jan-12 01:00N 51°27' E 003°32'5 9.3
2018-Jan-12 00:30N 51°27' E 003°39'612.7
2018-Jan-12 00:01N 51°22' E 003°46'3 5.8
2018-Jan-11 23:30N 51°20' E 003°49'0 0.0
2018-Jan-11 23:00N 51°20' E 003°49'1 1.6
2018-Jan-11 22:31N 51°19' E 003°50'3 5.1
2018-Jan-11 22:01N 51°16' E 003°50'3 6.2
2018-Jan-11 21:30N 51°14' E 003°48'3 6.6
2018-Jan-11 21:00N 51°10' E 003°48'0 0.1
2018-Jan-11 20:30N 51°10' E 003°48'0 0.1
2018-Jan-11 19:59N 51°10' E 003°48'0 0.0
2018-Jan-11 19:29N 51°10' E 003°48'0 0.0
2018-Jan-11 18:59N 51°10' E 003°48'0 0.0
2018-Jan-11 18:29N 51°10' E 003°48'0 0.0
2018-Jan-11 17:59N 51°10' E 003°48'0 0.0
2018-Jan-11 17:29N 51°10' E 003°48'0 0.0
2018-Jan-11 16:59N 51°10' E 003°48'0 0.0
2018-Jan-11 16:29N 51°10' E 003°48'0 0.0
2018-Jan-11 15:59N 51°10' E 003°48'0 0.0
2018-Jan-11 15:29N 51°10' E 003°48'0 0.0
2018-Jan-11 14:59N 51°10' E 003°48'0 0.0
2018-Jan-11 14:29N 51°10' E 003°48'0 0.0
2018-Jan-11 13:56N 51°10' E 003°48'0 0.0
2018-Jan-11 13:29N 51°10' E 003°48'0 0.0
2018-Jan-11 12:59N 51°10' E 003°48'0 0.0
2018-Jan-11 12:29N 51°10' E 003°48'0 0.0
2018-Jan-11 11:59N 51°10' E 003°48'0 0.0
2018-Jan-11 11:29N 51°10' E 003°48'0 0.0
2018-Jan-11 10:59N 51°10' E 003°48'0 0.0
2018-Jan-11 10:29N 51°10' E 003°48'0 0.0
2018-Jan-11 09:59N 51°10' E 003°48'0 0.0
2018-Jan-11 09:26N 51°10' E 003°48'0 0.0
2018-Jan-11 08:59N 51°10' E 003°48'0 0.0
2018-Jan-11 08:29N 51°10' E 003°48'0 0.0
2018-Jan-11 07:59N 51°10' E 003°48'0 0.0
2018-Jan-11 07:23N 51°10' E 003°48'0 0.0
2018-Jan-11 06:59N 51°10' E 003°48'0 0.0
2018-Jan-11 06:29N 51°10' E 003°48'0 0.0
2018-Jan-11 05:59N 51°10' E 003°48'0 0.0
2018-Jan-11 05:29N 51°10' E 003°48'0 0.0
2018-Jan-11 04:59N 51°10' E 003°48'0 0.0
2018-Jan-11 04:29N 51°10' E 003°48'0 0.0
2018-Jan-11 04:00N 51°10' E 003°48'0 0.0
2018-Jan-11 03:29N 51°10' E 003°48'0 0.0
2018-Jan-11 02:59N 51°10' E 003°48'0 0.0
2018-Jan-11 02:29N 51°10' E 003°48'0 0.0
2018-Jan-11 01:59N 51°10' E 003°48'0 0.0
2018-Jan-11 01:29N 51°10' E 003°48'0 0.0
2018-Jan-11 00:59N 51°10' E 003°48'0 0.0
2018-Jan-11 00:29N 51°10' E 003°48'0 0.0
2018-Jan-10 23:59N 51°10' E 003°48'0 0.0
2018-Jan-10 23:29N 51°10' E 003°48'0 0.0
2018-Jan-10 22:59N 51°10' E 003°48'0 0.0
2018-Jan-10 22:29N 51°10' E 003°48'0 0.0
2018-Jan-10 22:00N 51°10' E 003°48'0 0.0
2018-Jan-10 21:29N 51°10' E 003°48'0 0.0
2018-Jan-10 20:59N 51°10' E 003°48'0 0.0
2018-Jan-10 20:29N 51°10' E 003°48'0 0.0
2018-Jan-10 19:59N 51°10' E 003°48'0 0.0
2018-Jan-10 19:23N 51°10' E 003°48'0 0.0
2018-Jan-10 18:59N 51°10' E 003°48'0 0.0
2018-Jan-10 18:29N 51°10' E 003°48'0 0.0
2018-Jan-10 17:59N 51°10' E 003°48'0 0.0
2018-Jan-10 17:29N 51°10' E 003°48'0 0.0
2018-Jan-10 16:59N 51°10' E 003°48'0 0.0
2018-Jan-10 16:29N 51°10' E 003°48'0 0.0
2018-Jan-10 15:59N 51°10' E 003°48'0 0.0
2018-Jan-10 15:29N 51°10' E 003°48'0 0.0
2018-Jan-10 14:58N 51°10' E 003°48'0 0.0
2018-Jan-10 14:29N 51°10' E 003°48'0 0.0
2018-Jan-10 13:59N 51°10' E 003°48'0 0.0
2018-Jan-10 13:29N 51°10' E 003°48'0 0.0
2018-Jan-10 12:59N 51°10' E 003°48'0 0.0
2018-Jan-10 12:29N 51°10' E 003°48'0 0.0
2018-Jan-10 11:59N 51°10' E 003°48'0 0.0
2018-Jan-10 11:29N 51°10' E 003°48'0 0.0
2018-Jan-10 10:59N 51°10' E 003°48'0 0.0
2018-Jan-10 10:29N 51°10' E 003°48'0 0.0
2018-Jan-10 09:59N 51°10' E 003°48'0 0.0
2018-Jan-10 09:29N 51°10' E 003°48'0 0.0
2018-Jan-10 08:59N 51°10' E 003°48'0 0.0
2018-Jan-10 08:29N 51°10' E 003°48'0 0.0
2018-Jan-10 07:59N 51°10' E 003°48'0 0.0
2018-Jan-10 07:29N 51°10' E 003°48'0 0.0
2018-Jan-10 06:59N 51°10' E 003°48'0 0.0
2018-Jan-10 06:29N 51°10' E 003°48'0 0.0
2018-Jan-10 05:56N 51°10' E 003°48'0 0.0
2018-Jan-10 05:29N 51°10' E 003°48'0 0.0
2018-Jan-10 04:59N 51°10' E 003°48'0 0.0
2018-Jan-10 04:29N 51°10' E 003°48'0 0.0
2018-Jan-10 03:59N 51°10' E 003°48'0 0.0
2018-Jan-10 03:29N 51°10' E 003°48'0 0.0
2018-Jan-10 02:59N 51°10' E 003°48'0 0.0
2018-Jan-10 02:29N 51°10' E 003°48'0 0.0
2018-Jan-10 01:59N 51°10' E 003°48'0 0.0
2018-Jan-10 01:29N 51°10' E 003°48'0 0.0
2018-Jan-10 00:59N 51°10' E 003°48'0 0.0
2018-Jan-10 00:29N 51°10' E 003°48'0 0.0
2018-Jan-09 23:59N 51°10' E 003°48'0 0.0
2018-Jan-09 23:29N 51°10' E 003°48'0 0.0
2018-Jan-09 22:59N 51°10' E 003°48'0 0.0
2018-Jan-09 22:29N 51°10' E 003°48'0 0.0
2018-Jan-09 21:59N 51°10' E 003°48'0 0.0
2018-Jan-09 21:29N 51°10' E 003°48'0 0.0
2018-Jan-09 20:56N 51°10' E 003°48'0 0.0
2018-Jan-09 20:29N 51°10' E 003°48'0 0.0
2018-Jan-09 19:53N 51°10' E 003°48'0 0.0
2018-Jan-09 19:29N 51°10' E 003°48'0 0.0
2018-Jan-09 18:59N 51°10' E 003°48'0 0.0
2018-Jan-09 18:29N 51°10' E 003°48'0 0.0
2018-Jan-09 17:59N 51°10' E 003°48'0 0.0
2018-Jan-09 17:29N 51°10' E 003°48'0 0.0
2018-Jan-09 16:59N 51°10' E 003°48'0 0.0
2018-Jan-09 16:29N 51°10' E 003°48'0 0.0
2018-Jan-09 15:59N 51°10' E 003°48'0 0.0
2018-Jan-09 15:29N 51°10' E 003°48'0 0.0
2018-Jan-09 14:59N 51°10' E 003°48'0 0.0
2018-Jan-09 14:29N 51°10' E 003°48'0 0.0
2018-Jan-09 13:59N 51°10' E 003°48'0 0.0
2018-Jan-09 13:29N 51°10' E 003°48'0 0.0
2018-Jan-09 12:59N 51°10' E 003°48'0 0.0
2018-Jan-09 12:29N 51°10' E 003°48'0 0.0
2018-Jan-09 11:56N 51°10' E 003°48'0 0.0
2018-Jan-09 11:29N 51°10' E 003°48'0 0.0
2018-Jan-09 10:59N 51°10' E 003°48'0 0.0
2018-Jan-09 10:29N 51°10' E 003°48'0 0.0
2018-Jan-09 09:59N 51°10' E 003°48'0 0.0
2018-Jan-09 09:29N 51°10' E 003°48'0 0.0
2018-Jan-09 08:59N 51°10' E 003°48'0 0.0
2018-Jan-09 08:29N 51°10' E 003°48'0 0.0
2018-Jan-09 07:59N 51°10' E 003°48'0 0.0
2018-Jan-09 07:29N 51°10' E 003°48'0 0.0
2018-Jan-09 06:56N 51°10' E 003°48'0 0.0
2018-Jan-09 06:29N 51°10' E 003°48'0 0.0
2018-Jan-09 05:59N 51°10' E 003°48'0 0.0
2018-Jan-09 05:29N 51°10' E 003°48'0 0.0
2018-Jan-09 04:59N 51°10' E 003°48'0 0.0
2018-Jan-09 04:29N 51°10' E 003°48'0 0.0
2018-Jan-09 03:59N 51°10' E 003°48'0 0.0
2018-Jan-09 03:29N 51°10' E 003°48'0 0.0
2018-Jan-09 02:59N 51°10' E 003°48'0 0.0
2018-Jan-09 02:29N 51°10' E 003°48'0 0.0
2018-Jan-09 01:59N 51°10' E 003°48'0 0.0
2018-Jan-09 01:26N 51°10' E 003°48'0 0.0
2018-Jan-09 00:59N 51°10' E 003°48'0 0.0
2018-Jan-09 00:29N 51°10' E 003°48'0 0.0
2018-Jan-08 23:59N 51°10' E 003°48'0 0.0
2018-Jan-08 23:29N 51°10' E 003°48'0 0.0
2018-Jan-08 22:59N 51°10' E 003°48'0 0.0
2018-Jan-08 22:29N 51°10' E 003°48'0 0.0
2018-Jan-08 21:59N 51°10' E 003°48'0 0.0
2018-Jan-08 21:29N 51°10' E 003°48'0 0.0
2018-Jan-08 20:59N 51°10' E 003°48'0 0.0
2018-Jan-08 20:29N 51°10' E 003°48'0 0.0
2018-Jan-08 19:59N 51°10' E 003°48'0 0.0
2018-Jan-08 19:29N 51°10' E 003°48'0 0.0
2018-Jan-08 18:59N 51°10' E 003°48'0 0.0
2018-Jan-08 18:30N 51°10' E 003°48'0 0.0
2018-Jan-08 17:59N 51°10' E 003°48'0 0.0
2018-Jan-08 17:29N 51°10' E 003°48'  

Dump ship's entire track history